Time;durP1;ratioP1;P1;durP2;ratioP2;P2;SDS_P1;SDS_P2;PMS_P1;PMS_P2;Temp;Humidity;BMP_temperature;BMP_pressure;BME280_temperature;BME280_humidity;BME280_pressure;Samples;Min_cycle;Max_cycle;Signal;HPM_P1;HPM_P2
2021/12/09 00:00:27;;;;;;;363.42;346.08;;;;;;;1.47;62.70;100146.69;688978;28;44337;-70
2021/12/09 00:00:59;;;;;;;325.45;310.27;;;;;;;1.46;62.59;100134.34;688192;28;63360;-69
2021/12/09 00:01:23;;;;;;;320.60;305.25;;;;;;;1.44;62.70;100139.78;684463;28;82430;-69
2021/12/09 00:01:45;;;;;;;334.25;318.08;;;;;;;1.43;62.60;100133.63;688018;28;67716;-69
2021/12/09 00:02:08;;;;;;;346.98;330.20;;;;;;;1.43;62.64;100133.63;687874;28;69273;-69
2021/12/09 00:02:32;;;;;;;345.27;328.73;;;;;;;1.44;62.60;100129.16;688860;28;46441;-69
2021/12/09 00:02:53;;;;;;;336.63;320.75;;;;;;;1.43;62.58;100130.97;686456;28;92368;-69
2021/12/09 00:03:14;;;;;;;359.65;342.85;;;;;;;1.42;62.68;100129.28;689727;28;22421;-69
2021/12/09 00:03:39;;;;;;;377.85;359.77;;;;;;;1.42;62.70;100125.78;689093;28;41471;-68
2021/12/09 00:04:05;;;;;;;348.33;331.13;;;;;;;1.43;62.71;100119.50;686485;28;115137;-69
2021/12/09 00:04:30;;;;;;;343.80;327.33;;;;;;;1.45;62.66;100120.19;685703;28;137648;-69
2021/12/09 00:04:54;;;;;;;343.58;327.05;;;;;;;1.44;62.57;100124.69;686378;28;115925;-69
2021/12/09 00:05:17;;;;;;;357.50;340.20;;;;;;;1.50;62.67;100117.16;687983;28;69331;-70
2021/12/09 00:05:42;;;;;;;407.58;387.70;;;;;;;1.57;62.47;100123.63;688893;28;45256;-70
2021/12/09 00:06:07;;;;;;;421.73;401.38;;;;;;;1.59;62.32;100116.34;685499;28;136430;-69
2021/12/09 00:06:30;;;;;;;392.35;373.23;;;;;;;1.59;62.31;100119.84;686713;28;115297;-69
2021/12/09 00:06:53;;;;;;;390.67;371.98;;;;;;;1.59;62.18;100121.66;688276;28;69429;-69
2021/12/09 00:07:16;;;;;;;404.20;384.63;;;;;;;1.55;61.88;100117.56;688003;28;69216;-68
2021/12/09 00:07:37;;;;;;;440.25;417.63;;;;;;;1.53;62.08;100119.53;687030;28;69088;-69
2021/12/09 00:07:58;;;;;;;327.48;311.42;;;;;;;1.50;62.20;100123.31;689716;28;21568;-69
2021/12/09 00:08:19;;;;;;;334.90;319.10;;;;;;;1.49;62.25;100113.66;689910;28;22388;-69
2021/12/09 00:08:41;;;;;;;350.02;333.38;;;;;;;1.46;62.25;100108.59;689850;28;21522;-69
2021/12/09 00:09:06;;;;;;;401.52;381.67;;;;;;;1.47;62.17;100117.41;688209;28;45275;-69
2021/12/09 00:09:27;;;;;;;437.38;415.88;;;;;;;1.44;62.12;100107.88;686514;28;115087;-69
2021/12/09 00:09:49;;;;;;;420.48;399.90;;;;;;;1.46;62.27;100111.25;689480;28;22477;-69
2021/12/09 00:10:12;;;;;;;424.15;403.73;;;;;;;1.44;62.15;100105.19;688148;28;46302;-69
2021/12/09 00:10:35;;;;;;;424.42;403.98;;;;;;;1.44;62.24;100105.19;688119;28;67548;-69
2021/12/09 00:10:58;;;;;;;380.15;361.42;;;;;;;1.45;62.35;100104.25;688156;28;67489;-69
2021/12/09 00:11:20;;;;;;;521.20;494.90;;;;;;;1.44;62.42;100098.09;688110;28;69347;-68
2021/12/09 00:11:45;;;;;;;616.60;584.50;;;;;;;1.46;62.35;100105.06;689457;28;46299;-69
2021/12/09 00:12:07;;;;;;;606.97;575.45;;;;;;;1.44;62.43;100102.53;687377;28;114986;-69
2021/12/09 00:12:29;;;;;;;636.00;602.28;;;;;;;1.42;62.30;100096.53;689882;28;46381;-69
2021/12/09 00:12:50;;;;;;;733.33;692.40;;;;;;;1.40;62.41;100095.81;690536;28;22425;-69
2021/12/09 00:13:12;;;;;;;808.65;762.58;;;;;;;1.42;62.37;100099.19;688895;28;44839;-69
2021/12/09 00:13:33;;;;;;;833.58;785.50;;;;;;;1.41;62.52;100100.16;689425;28;44389;-69
2021/12/09 00:13:54;;;;;;;747.28;705.40;;;;;;;1.43;62.45;100090.22;692150;28;22352;-70
2021/12/09 00:14:18;;;;;;;770.92;727.67;;;;;;;1.48;62.44;100096.00;692358;28;22391;-70
2021/12/09 00:14:40;;;;;;;687.53;650.65;;;;;;;1.49;62.46;100095.03;689610;28;90311;-68
2021/12/09 00:15:02;;;;;;;575.40;546.00;;;;;;;1.48;62.42;100101.31;690643;28;45242;-69
2021/12/09 00:15:23;;;;;;;593.17;562.60;;;;;;;1.49;62.42;100096.81;688797;28;45225;-69
2021/12/09 00:15:45;;;;;;;567.92;538.78;;;;;;;1.47;62.19;100099.63;689653;28;22149;-70
2021/12/09 00:16:06;;;;;;;552.83;524.92;;;;;;;1.44;62.08;100097.22;688807;28;44333;-69
2021/12/09 00:16:28;;;;;;;565.58;536.67;;;;;;;1.43;62.17;100095.56;689626;28;21400;-69
2021/12/09 00:16:50;;;;;;;557.50;529.22;;;;;;;1.41;62.27;100098.34;688748;28;46391;-69
2021/12/09 00:17:11;;;;;;;552.35;524.88;;;;;;;1.38;62.28;100089.78;689083;28;46333;-69
2021/12/09 00:17:32;;;;;;;520.40;494.80;;;;;;;1.41;62.29;100092.16;689451;28;22383;-69
2021/12/09 00:17:54;;;;;;;468.02;444.42;;;;;;;1.46;62.20;100097.09;688360;28;22400;-69
2021/12/09 00:18:16;;;;;;;490.27;465.77;;;;;;;1.49;62.41;100102.16;689497;28;1661;-70
2021/12/09 00:18:37;;;;;;;510.80;485.35;;;;;;;1.51;62.20;100094.88;688279;28;46310;-68
2021/12/09 00:18:59;;;;;;;486.60;462.35;;;;;;;1.54;62.39;100092.78;689762;28;22275;-68
2021/12/09 00:19:22;;;;;;;555.15;526.97;;;;;;;1.53;62.01;100099.06;688952;28;42579;-69
2021/12/09 00:19:43;;;;;;;587.17;557.00;;;;;;;1.54;62.04;100095.44;687449;28;69531;-69
2021/12/09 00:20:05;;;;;;;589.35;558.92;;;;;;;1.53;62.12;100090.25;689728;28;21411;-68
2021/12/09 00:20:27;;;;;;;579.70;550.53;;;;;;;1.49;62.15;100097.69;689148;28;44410;-69
2021/12/09 00:20:48;;;;;;;575.22;546.28;;;;;;;1.48;62.01;100090.66;688661;28;46366;-69
2021/12/09 00:21:11;;;;;;;573.85;544.30;;;;;;;1.44;61.97;100086.56;689611;28;22477;-69
2021/12/09 00:21:32;;;;;;;612.47;580.85;;;;;;;1.40;62.03;100086.00;688200;28;68420;-69
2021/12/09 00:21:56;;;;;;;581.40;551.47;;;;;;;1.37;62.03;100083.63;689033;28;47308;-69
2021/12/09 00:22:17;;;;;;;521.35;494.98;;;;;;;1.39;62.24;100092.28;687928;28;69367;-69
2021/12/09 00:22:38;;;;;;;518.72;492.63;;;;;;;1.37;62.17;100104.06;688891;28;20712;-69
2021/12/09 00:22:59;;;;;;;525.78;499.83;;;;;;;1.34;62.14;100091.88;689848;28;22446;-69
2021/12/09 00:23:21;;;;;;;493.65;468.98;;;;;;;1.38;62.38;100089.78;689913;28;21246;-69
2021/12/09 00:23:42;;;;;;;538.20;511.13;;;;;;;1.37;62.26;100096.09;687631;28;67519;-69
2021/12/09 00:24:04;;;;;;;542.90;515.88;;;;;;;1.38;62.51;100093.28;689492;28;22366;-69
2021/12/09 00:24:27;;;;;;;522.00;495.35;;;;;;;1.37;62.41;100091.59;688942;28;45212;-69
2021/12/09 00:24:48;;;;;;;542.28;514.55;;;;;;;1.37;62.40;100088.94;689056;28;47310;-69
2021/12/09 00:25:09;;;;;;;581.58;551.92;;;;;;;1.37;62.49;100096.91;689886;28;22648;-69
2021/12/09 00:25:31;;;;;;;623.40;590.60;;;;;;;1.36;62.35;100097.06;689526;28;21530;-69
2021/12/09 00:25:52;;;;;;;636.30;602.58;;;;;;;1.36;62.39;100091.72;688429;28;44535;-69
2021/12/09 00:26:14;;;;;;;642.47;608.25;;;;;;;1.34;62.42;100091.88;690043;28;1145;-69
2021/12/09 00:26:44;;;;;;;657.40;622.22;;;;;;;1.34;62.44;100096.34;688157;28;60608;-69
2021/12/09 00:27:05;;;;;;;695.80;658.25;;;;;;;1.34;62.56;100094.53;689553;28;21149;-69
2021/12/09 00:27:26;;;;;;;660.63;625.60;;;;;;;1.34;62.43;100086.53;689611;28;23476;-69
2021/12/09 00:27:48;;;;;;;714.60;674.90;;;;;;;1.35;62.48;100096.22;688425;28;23457;-69
2021/12/09 00:28:09;;;;;;;775.30;731.38;;;;;;;1.34;62.39;100091.03;687803;28;69460;-69
2021/12/09 00:28:30;;;;;;;800.17;754.47;;;;;;;1.36;62.53;100089.06;691934;28;23506;-69
2021/12/09 00:28:52;;;;;;;690.70;653.20;;;;;;;1.35;62.58;100093.56;692012;28;22110;-70
2021/12/09 00:29:15;;;;;;;630.15;597.33;;;;;;;1.34;62.43;100086.53;692097;28;21527;-69
2021/12/09 00:29:36;;;;;;;568.22;538.83;;;;;;;1.31;62.47;100084.16;689638;28;92123;-69
2021/12/09 00:29:58;;;;;;;561.35;533.47;;;;;;;1.30;62.39;100087.81;692163;28;23522;-69
2021/12/09 00:30:20;;;;;;;551.78;524.25;;;;;;;1.28;62.50;100087.06;691101;28;22586;-69
2021/12/09 00:30:42;;;;;;;549.63;522.03;;;;;;;1.28;62.64;100080.91;688782;28;45226;-70
2021/12/09 00:31:03;;;;;;;586.10;556.05;;;;;;;1.25;62.56;100076.69;688338;28;45306;-69
2021/12/09 00:31:25;;;;;;;593.78;562.92;;;;;;;1.24;62.63;100078.53;689355;28;21281;-69
2021/12/09 00:31:48;;;;;;;524.33;497.83;;;;;;;1.22;62.74;100076.97;688709;28;45247;-69
2021/12/09 00:32:09;;;;;;;461.52;438.42;;;;;;;1.22;62.80;100079.63;687724;28;69113;-69
2021/12/09 00:32:30;;;;;;;511.55;486.17;;;;;;;1.23;62.99;100087.47;689180;28;21518;-69
2021/12/09 00:32:51;;;;;;;589.28;558.97;;;;;;;1.23;62.77;100089.28;687652;28;46299;-70
2021/12/09 00:33:16;;;;;;;505.15;479.05;;;;;;;1.22;62.91;100084.94;689518;28;22378;-69
2021/12/09 00:33:42;;;;;;;467.88;444.88;;;;;;;1.23;62.86;100078.66;687153;28;90766;-69
2021/12/09 00:34:04;;;;;;;464.40;441.80;;;;;;;1.21;62.90;100083.28;685520;28;138117;-69
2021/12/09 00:34:28;;;;;;;423.55;402.52;;;;;;;1.19;62.87;100078.09;688726;28;46335;-69
2021/12/09 00:34:51;;;;;;;503.63;478.45;;;;;;;1.19;62.95;100082.53;687118;28;92298;-69
2021/12/09 00:35:14;;;;;;;517.17;491.25;;;;;;;1.20;62.96;100073.59;687140;28;92355;-69
2021/12/09 00:35:44;;;;;;;570.78;541.83;;;;;;;1.22;63.03;100079.63;689160;28;38142;-69
2021/12/09 00:36:06;;;;;;;592.15;562.40;;;;;;;1.22;63.10;100077.81;685830;28;137907;-69
2021/12/09 00:36:36;;;;;;;520.92;494.67;;;;;;;1.20;62.95;100070.94;688988;28;40938;-69
2021/12/09 00:37:00;;;;;;;488.95;464.50;;;;;;;1.22;63.05;100076.97;685925;28;138170;-69
2021/12/09 00:37:28;;;;;;;446.30;424.75;;;;;;;1.21;63.05;100069.97;686297;28;113713;-69
2021/12/09 00:37:56;;;;;;;361.33;343.75;;;;;;;1.19;63.10;100078.09;684189;28;137840;-69
2021/12/09 00:38:22;;;;;;;360.50;343.20;;;;;;;1.17;63.08;100080.03;685374;28;136724;-69
2021/12/09 00:38:44;;;;;;;405.17;385.13;;;;;;;1.19;62.95;100079.88;685591;28;136304;-69
2021/12/09 00:39:07;;;;;;;392.95;373.75;;;;;;;1.20;63.23;100082.41;688790;28;44042;-69
2021/12/09 00:39:28;;;;;;;439.60;418.50;;;;;;;1.21;63.15;100081.44;688217;28;69280;-69
2021/12/09 00:39:50;;;;;;;484.92;461.08;;;;;;;1.21;63.00;100084.09;689448;28;21543;-69
2021/12/09 00:40:12;;;;;;;555.47;527.00;;;;;;;1.21;62.94;100088.59;688903;28;46311;-69
2021/12/09 00:40:34;;;;;;;608.00;576.50;;;;;;;1.18;62.83;100078.22;688887;28;46333;-69
2021/12/09 00:40:55;;;;;;;702.90;664.28;;;;;;;1.16;63.06;100082.81;688377;28;46345;-69
2021/12/09 00:41:16;;;;;;;764.72;721.70;;;;;;;1.13;63.07;100083.94;689577;28;21533;-69
2021/12/09 00:41:38;;;;;;;751.05;708.83;;;;;;;1.14;63.10;100082.94;689942;28;23470;-69
2021/12/09 00:41:59;;;;;;;722.67;681.88;;;;;;;1.23;63.04;100073.34;687908;28;69387;-70
2021/12/09 00:42:23;;;;;;;445.92;423.73;;;;;;;1.28;62.96;100076.44;690025;28;16698;-70
2021/12/09 00:42:44;;;;;;;431.50;409.92;;;;;;;1.32;63.01;100074.38;687142;28;69437;-70
2021/12/09 00:43:07;;;;;;;430.98;409.65;;;;;;;1.32;62.81;100077.84;689067;28;45136;-70
2021/12/09 00:43:28;;;;;;;439.38;417.65;;;;;;;1.35;62.75;100074.06;689030;28;46167;-70
2021/12/09 00:43:49;;;;;;;489.73;465.33;;;;;;;1.34;62.64;100070.56;691487;28;22390;-69
2021/12/09 00:44:11;;;;;;;481.08;457.15;;;;;;;1.35;62.75;100072.28;691231;28;46349;-70
2021/12/09 00:44:32;;;;;;;471.80;448.73;;;;;;;1.34;62.60;100075.91;691551;28;45269;-70
2021/12/09 00:44:54;;;;;;;455.25;433.42;;;;;;;1.35;62.53;100072.28;691876;28;23460;-70
2021/12/09 00:45:15;;;;;;;450.67;428.67;;;;;;;1.32;62.58;100071.72;692315;28;22392;-70
2021/12/09 00:45:38;;;;;;;509.00;483.73;;;;;;;1.33;62.52;100066.22;690560;28;45278;-70
2021/12/09 00:45:59;;;;;;;530.85;504.42;;;;;;;1.36;62.50;100075.75;688789;28;44382;-70
2021/12/09 00:46:20;;;;;;;480.30;456.23;;;;;;;1.34;62.40;100075.91;689688;28;22162;-70
2021/12/09 00:46:42;;;;;;;442.83;421.00;;;;;;;1.32;62.42;100077.03;689844;28;22392;-69
2021/12/09 00:47:03;;;;;;;451.00;428.85;;;;;;;1.36;62.41;100076.59;688909;28;46429;-69
2021/12/09 00:47:25;;;;;;;447.40;425.83;;;;;;;1.32;62.31;100085.84;690118;28;1584;-70
2021/12/09 00:47:47;;;;;;;477.20;453.45;;;;;;;1.30;62.24;100082.47;687354;28;46364;-70
2021/12/09 00:48:09;;;;;;;452.67;430.42;;;;;;;1.28;62.32;100081.75;689030;28;44460;-70
2021/12/09 00:48:31;;;;;;;432.35;411.08;;;;;;;1.27;62.44;100082.75;689119;28;44375;-70
2021/12/09 00:48:52;;;;;;;458.45;435.92;;;;;;;1.25;62.42;100087.34;689402;28;21508;-70
2021/12/09 00:49:14;;;;;;;450.70;428.55;;;;;;;1.25;62.60;100074.91;688653;28;46275;-70
2021/12/09 00:49:35;;;;;;;476.10;452.42;;;;;;;1.30;62.62;100079.81;688985;28;46362;-69
2021/12/09 00:49:57;;;;;;;502.88;477.65;;;;;;;1.38;62.59;100077.31;689779;28;21301;-70
2021/12/09 00:50:19;;;;;;;554.55;526.83;;;;;;;1.39;62.56;100072.84;689508;28;24361;-70
2021/12/09 00:50:41;;;;;;;588.10;558.65;;;;;;;1.42;62.49;100077.91;688571;28;47411;-69
2021/12/09 00:51:04;;;;;;;699.75;661.65;;;;;;;1.41;62.33;100079.72;688000;28;69375;-70
2021/12/09 00:51:25;;;;;;;917.88;863.92;;;;;;;1.39;62.26;100065.69;688800;28;41273;-70
2021/12/09 00:51:48;;;;;;;910.53;857.50;;;;;;;1.42;62.29;100076.06;689115;28;22406;-69
2021/12/09 00:52:12;;;;;;;798.05;752.35;;;;;;;1.41;62.02;100070.88;687791;28;56649;-69
2021/12/09 00:52:34;;;;;;;843.30;794.22;;;;;;;1.42;62.11;100068.09;687951;28;70234;-69
2021/12/09 00:52:55;;;;;;;794.83;749.45;;;;;;;1.43;61.94;100077.75;688289;28;22232;-70
2021/12/09 00:53:16;;;;;;;569.75;539.78;;;;;;;1.42;62.00;100069.91;689579;28;23612;-70
2021/12/09 00:53:40;;;;;;;440.55;418.85;;;;;;;1.42;62.12;100077.91;689253;28;23356;-70
2021/12/09 00:54:01;;;;;;;439.10;417.58;;;;;;;1.38;61.95;100073.81;686875;28;90307;-70
2021/12/09 00:54:22;;;;;;;433.40;412.73;;;;;;;1.36;62.06;100073.94;688644;28;44366;-70
2021/12/09 00:54:44;;;;;;;460.77;438.55;;;;;;;1.35;62.16;100072.28;689495;28;22489;-71
2021/12/09 00:55:08;;;;;;;507.00;481.73;;;;;;;1.31;62.21;100080.66;689506;28;22458;-69
2021/12/09 00:55:30;;;;;;;481.52;457.67;;;;;;;1.29;62.13;100078.13;686680;28;115179;-69
2021/12/09 00:55:51;;;;;;;457.40;434.95;;;;;;;1.37;62.35;100072.13;689693;28;22376;-70
2021/12/09 00:56:13;;;;;;;436.08;415.15;;;;;;;1.42;62.22;100078.72;689045;28;44133;-70
2021/12/09 00:56:35;;;;;;;396.08;376.70;;;;;;;1.44;62.34;100078.59;688931;28;46180;-70
2021/12/09 00:56:56;;;;;;;492.35;467.67;;;;;;;1.46;62.04;100073.13;688811;28;44300;-70
2021/12/09 00:57:18;;;;;;;590.28;559.67;;;;;;;1.44;62.11;100066.16;689308;28;21579;-69
2021/12/09 00:57:40;;;;;;;580.15;550.95;;;;;;;1.43;62.06;100068.94;688221;28;22001;-70
2021/12/09 00:58:03;;;;;;;569.95;541.00;;;;;;;1.46;61.89;100065.16;688419;28;45208;-70
2021/12/09 00:58:24;;;;;;;616.63;584.35;;;;;;;1.50;61.92;100071.91;689704;28;16364;-69
2021/12/09 00:58:45;;;;;;;599.95;568.97;;;;;;;1.50;61.92;100071.91;688632;28;44361;-69
2021/12/09 00:59:07;;;;;;;591.22;560.70;;;;;;;1.47;61.85;100065.00;690372;28;23521;-69
2021/12/09 00:59:29;;;;;;;636.47;602.97;;;;;;;1.48;61.89;100071.19;688596;28;46388;-69
2021/12/09 00:59:50;;;;;;;719.50;679.80;;;;;;;1.53;61.81;100067.13;689461;28;22401;-69
2021/12/09 01:00:14;;;;;;;701.05;663.05;;;;;;;1.52;61.74;100070.81;689684;28;22195;-68
2021/12/09 01:00:36;;;;;;;634.55;600.13;;;;;;;1.50;61.57;100077.22;689409;28;92184;-69
2021/12/09 01:00:57;;;;;;;434.60;412.90;;;;;;;1.46;61.63;100070.47;691628;28;46267;-69
2021/12/09 01:01:18;;;;;;;414.35;393.95;;;;;;;1.40;61.72;100066.56;691516;28;45288;-69
2021/12/09 01:01:39;;;;;;;411.40;391.73;;;;;;;1.41;61.73;100074.41;692371;28;14969;-69
2021/12/09 01:02:01;;;;;;;414.23;394.63;;;;;;;1.44;61.82;100075.94;692213;28;22390;-69
2021/12/09 01:02:22;;;;;;;409.17;389.38;;;;;;;1.43;61.75;100075.09;690682;28;44399;-69
2021/12/09 01:02:44;;;;;;;369.38;351.45;;;;;;;1.40;61.86;100080.69;688696;28;22386;-69
2021/12/09 01:03:05;;;;;;;373.13;355.58;;;;;;;1.40;61.85;100067.38;688479;28;20372;-69
2021/12/09 01:03:27;;;;;;;371.92;354.02;;;;;;;1.42;61.87;100077.91;688365;28;45250;-70
2021/12/09 01:03:49;;;;;;;367.17;349.20;;;;;;;1.41;61.95;100076.19;687538;28;44991;-69
2021/12/09 01:04:11;;;;;;;394.20;375.00;;;;;;;1.43;62.09;100083.09;688085;28;44146;-69
2021/12/09 01:04:32;;;;;;;411.85;392.27;;;;;;;1.41;62.00;100081.53;688892;28;21518;-69
2021/12/09 01:04:54;;;;;;;405.80;386.08;;;;;;;1.37;61.63;100077.47;688929;28;22539;-69
2021/12/09 01:05:15;;;;;;;397.60;378.20;;;;;;;1.35;62.02;100074.94;688842;28;46269;-69
2021/12/09 01:05:36;;;;;;;392.17;373.05;;;;;;;1.34;61.99;100077.72;689415;28;22568;-69
2021/12/09 01:05:58;;;;;;;392.30;373.17;;;;;;;1.30;62.10;100074.50;688510;28;46136;-68
2021/12/09 01:06:19;;;;;;;433.00;411.65;;;;;;;1.34;62.04;100075.91;688822;28;45097;-69
2021/12/09 01:06:41;;;;;;;420.63;400.38;;;;;;;1.30;62.15;100079.81;689283;28;22416;-69
2021/12/09 01:07:04;;;;;;;393.90;375.00;;;;;;;1.29;62.11;100077.28;689586;28;22399;-70
2021/12/09 01:07:26;;;;;;;408.52;388.27;;;;;;;1.26;62.10;100078.41;684083;28;92303;-69
2021/12/09 01:07:47;;;;;;;426.05;405.20;;;;;;;1.25;62.04;100072.25;685053;28;45313;-69
2021/12/09 01:08:08;;;;;;;450.58;428.52;;;;;;;1.24;62.37;100067.88;689512;28;22983;-69
2021/12/09 01:08:30;;;;;;;447.95;425.65;;;;;;;1.24;62.32;100072.38;689577;28;23518;-69
2021/12/09 01:08:52;;;;;;;377.63;359.30;;;;;;;1.21;62.31;100073.47;689216;28;23614;-69
2021/12/09 01:09:13;;;;;;;447.08;425.02;;;;;;;1.21;62.51;100075.28;688745;28;46496;-69
2021/12/09 01:09:34;;;;;;;571.40;542.38;;;;;;;1.19;62.37;100067.44;689812;28;21294;-69
2021/12/09 01:09:55;;;;;;;530.88;504.70;;;;;;;1.20;62.56;100078.91;688521;28;45223;-69
2021/12/09 01:10:18;;;;;;;533.08;506.00;;;;;;;1.24;62.56;100069.72;689506;28;21532;-69
2021/12/09 01:10:39;;;;;;;640.80;606.83;;;;;;;1.25;62.49;100068.72;688711;28;44512;-68
2021/12/09 01:11:01;;;;;;;850.47;801.55;;;;;;;1.22;62.51;100067.19;688968;28;46356;-69
2021/12/09 01:11:22;;;;;;;863.60;813.83;;;;;;;1.21;62.75;100077.97;689712;28;22379;-69
2021/12/09 01:11:43;;;;;;;641.00;607.30;;;;;;;1.19;62.52;100074.56;690531;28;954;-69
2021/12/09 01:12:07;;;;;;;586.38;556.45;;;;;;;1.17;62.63;100077.34;689281;28;22190;-70
2021/12/09 01:12:28;;;;;;;606.15;574.50;;;;;;;1.14;62.78;100074.13;687905;28;69510;-69
2021/12/09 01:12:49;;;;;;;556.97;528.47;;;;;;;1.14;62.84;100074.13;688484;28;23523;-69
2021/12/09 01:13:11;;;;;;;512.15;486.42;;;;;;;1.13;62.67;100072.44;688416;28;46402;-70
2021/12/09 01:13:34;;;;;;;442.02;420.25;;;;;;;1.12;62.64;100070.78;688442;28;45329;-70
2021/12/09 01:13:55;;;;;;;435.92;414.75;;;;;;;1.14;62.81;100076.78;687975;28;68382;-69
2021/12/09 01:14:16;;;;;;;447.13;425.65;;;;;;;1.12;62.86;100076.91;689608;28;22419;-70
2021/12/09 01:14:37;;;;;;;462.13;439.25;;;;;;;1.10;62.98;100078.03;689773;28;23497;-69
2021/12/09 01:15:00;;;;;;;520.70;494.77;;;;;;;1.05;62.89;100067.78;688908;28;934;-69
2021/12/09 01:15:22;;;;;;;484.23;460.27;;;;;;;1.05;63.00;100079.28;690020;28;1262;-69
2021/12/09 01:15:43;;;;;;;463.15;440.20;;;;;;;1.05;63.06;100081.94;687717;28;46415;-69
2021/12/09 01:16:05;;;;;;;516.10;489.85;;;;;;;1.03;63.01;100072.41;687204;28;46411;-69
2021/12/09 01:16:27;;;;;;;534.22;507.10;;;;;;;1.02;63.04;100079.53;688024;28;46415;-69
2021/12/09 01:16:48;;;;;;;338.13;321.65;;;;;;;0.99;63.28;100071.00;687830;28;44367;-69
2021/12/09 01:17:10;;;;;;;286.40;272.90;;;;;;;1.01;63.24;100069.88;689703;28;22358;-69
2021/12/09 01:17:32;;;;;;;284.08;270.27;;;;;;;1.03;63.49;100073.22;689018;28;45235;-69
2021/12/09 01:17:53;;;;;;;294.10;279.75;;;;;;;1.08;63.35;100084.34;687941;28;22370;-70
2021/12/09 01:18:15;;;;;;;310.48;295.55;;;;;;;1.09;63.29;100077.19;688656;28;46346;-70
2021/12/09 01:18:37;;;;;;;333.48;317.73;;;;;;;1.10;63.31;100086.00;688642;28;45271;-70
2021/12/09 01:18:58;;;;;;;321.98;306.48;;;;;;;1.10;63.35;100083.34;689146;28;44184;-69
2021/12/09 01:19:19;;;;;;;288.92;275.02;;;;;;;1.11;63.31;100079.72;689644;28;23479;-68
2021/12/09 01:19:41;;;;;;;320.15;304.80;;;;;;;1.12;63.26;100078.75;689790;28;22389;-70
2021/12/09 01:20:04;;;;;;;338.08;321.85;;;;;;;1.11;63.10;100080.53;688736;28;44397;-70
2021/12/09 01:20:26;;;;;;;331.63;315.65;;;;;;;1.12;63.09;100076.09;688029;28;66815;-69
2021/12/09 01:20:47;;;;;;;315.08;300.08;;;;;;;1.11;63.29;100083.22;688596;28;46311;-70
2021/12/09 01:21:10;;;;;;;323.08;307.58;;;;;;;1.09;63.26;100074.53;689816;28;22364;-70
2021/12/09 01:21:31;;;;;;;330.02;314.13;;;;;;;1.11;63.19;100085.03;689378;28;24512;-69
2021/12/09 01:21:52;;;;;;;355.98;338.70;;;;;;;1.10;63.32;100083.34;689394;28;21476;-69
2021/12/09 01:22:14;;;;;;;362.70;345.17;;;;;;;1.10;63.37;100081.53;689469;28;21485;-69
2021/12/09 01:22:40;;;;;;;348.02;331.15;;;;;;;1.12;63.31;100076.09;688323;28;45075;-70
2021/12/09 01:23:03;;;;;;;360.13;342.85;;;;;;;1.14;63.26;100076.78;680817;28;157921;-69
2021/12/09 01:23:24;;;;;;;341.90;325.75;;;;;;;1.14;63.15;100079.44;686840;28;46501;-69
2021/12/09 01:23:46;;;;;;;353.02;336.00;;;;;;;1.13;63.24;100083.06;688543;28;45406;-69
2021/12/09 01:24:07;;;;;;;367.65;349.80;;;;;;;1.14;62.95;100077.63;688550;28;46286;-69
2021/12/09 01:24:28;;;;;;;350.85;333.83;;;;;;;1.16;63.04;100082.81;689353;28;21542;-69
2021/12/09 01:24:49;;;;;;;345.65;328.85;;;;;;;1.16;63.03;100083.69;689540;28;22405;-69
2021/12/09 01:25:13;;;;;;;327.52;311.92;;;;;;;1.16;62.84;100089.00;689615;28;23318;-69
2021/12/09 01:26:02;;;;;;;336.00;319.88;;;;;;;1.14;62.92;100087.44;685566;28;136051;-70
2021/12/09 01:26:27;;;;;;;281.38;267.67;;;;;;;1.14;62.96;100088.25;685559;28;137653;-70
2021/12/09 01:26:49;;;;;;;297.83;283.38;;;;;;;1.14;62.92;100090.09;688566;28;44410;-71
2021/12/09 01:27:11;;;;;;;388.02;369.08;;;;;;;1.18;63.01;100094.19;685471;28;47178;-71
2021/12/09 01:27:35;;;;;;;403.50;383.52;;;;;;;1.23;63.00;100094.63;685658;28;44457;-70
2021/12/09 01:27:57;;;;;;;417.00;396.38;;;;;;;1.30;62.95;100094.91;682898;28;111968;-70
2021/12/09 01:28:23;;;;;;;446.63;424.38;;;;;;;1.26;62.60;100095.19;686006;28;46301;-70
2021/12/09 01:28:49;;;;;;;461.30;438.42;;;;;;;1.25;62.59;100095.31;682663;28;138125;-70
2021/12/09 01:29:15;;;;;;;482.65;458.63;;;;;;;1.25;62.59;100096.19;684850;28;137901;-71
2021/12/09 01:29:40;;;;;;;435.70;414.73;;;;;;;1.27;62.68;100101.38;684658;28;159296;-71
2021/12/09 01:30:08;;;;;;;444.80;422.85;;;;;;;1.26;62.57;100105.81;686472;28;115056;-71
2021/12/09 01:30:30;;;;;;;412.60;392.55;;;;;;;1.22;62.45;100103.56;685851;28;137810;-70
2021/12/09 01:30:59;;;;;;;379.63;361.40;;;;;;;1.20;62.49;100097.53;688543;28;44385;-70
2021/12/09 01:31:23;;;;;;;527.67;501.13;;;;;;;1.16;62.52;100099.63;685329;28;136337;-71
2021/12/09 01:31:53;;;;;;;528.40;501.92;;;;;;;1.14;62.57;100103.38;686290;28;113561;-70
2021/12/09 01:32:15;;;;;;;518.17;492.17;;;;;;;1.15;62.63;100097.09;685482;28;137526;-71
2021/12/09 01:32:36;;;;;;;546.60;519.28;;;;;;;1.17;62.68;100100.47;687951;28;44314;-70
2021/12/09 01:32:58;;;;;;;564.10;536.08;;;;;;;1.17;62.79;100095.16;689589;28;21508;-70
2021/12/09 01:33:21;;;;;;;566.17;537.45;;;;;;;1.18;62.78;100100.34;688438;28;45233;-70
2021/12/09 01:33:43;;;;;;;515.63;489.73;;;;;;;1.17;62.77;100098.63;687781;28;69417;-70
2021/12/09 01:34:05;;;;;;;518.95;493.58;;;;;;;1.20;62.75;100100.19;688884;28;46198;-70
2021/12/09 01:34:26;;;;;;;537.13;510.27;;;;;;;1.19;62.69;100096.72;688558;28;45230;-70
2021/12/09 01:34:47;;;;;;;554.00;525.95;;;;;;;1.20;62.69;100093.06;686381;28;21770;-70
2021/12/09 01:35:09;;;;;;;559.65;531.30;;;;;;;1.21;62.64;100096.56;686441;28;23466;-71
2021/12/09 01:35:33;;;;;;;601.17;570.08;;;;;;;1.21;62.69;100104.56;685311;28;46265;-71
2021/12/09 01:35:54;;;;;;;565.90;537.00;;;;;;;1.20;62.66;100101.03;684210;28;90689;-70
2021/12/09 01:36:16;;;;;;;626.42;593.25;;;;;;;1.17;62.64;100097.81;686766;28;23480;-70
2021/12/09 01:36:37;;;;;;;660.17;624.95;;;;;;;1.16;62.49;100109.41;686549;28;45186;-70
2021/12/09 01:36:59;;;;;;;647.75;613.47;;;;;;;1.13;62.63;100094.56;689679;28;23474;-70
2021/12/09 01:37:21;;;;;;;614.50;583.08;;;;;;;1.12;62.75;100106.19;688490;28;46315;-70
2021/12/09 01:37:44;;;;;;;616.15;584.67;;;;;;;1.12;62.88;100105.34;687362;28;46523;-70
2021/12/09 01:38:11;;;;;;;588.40;558.42;;;;;;;1.10;62.91;100116.13;687739;28;69435;-70
2021/12/09 01:38:33;;;;;;;655.22;620.67;;;;;;;1.07;63.01;100109.22;684722;28;160595;-70
2021/12/09 01:38:54;;;;;;;654.33;619.83;;;;;;;1.06;63.13;100109.38;688692;28;45340;-70
2021/12/09 01:39:16;;;;;;;653.13;618.72;;;;;;;1.06;63.13;100110.19;689547;28;21519;-70
2021/12/09 01:39:37;;;;;;;678.90;643.22;;;;;;;1.06;63.08;100118.16;688880;28;44440;-70
2021/12/09 01:39:59;;;;;;;707.90;669.28;;;;;;;1.06;63.08;100120.84;689509;28;22300;-69
2021/12/09 01:40:21;;;;;;;739.10;697.65;;;;;;;1.06;63.27;100118.16;688889;28;46379;-69
2021/12/09 01:40:42;;;;;;;728.95;688.88;;;;;;;1.07;63.28;100129.69;688923;28;45246;-69
2021/12/09 01:41:04;;;;;;;764.00;721.33;;;;;;;1.05;63.09;100119.16;689014;28;46393;-69
2021/12/09 01:41:26;;;;;;;842.50;793.88;;;;;;;1.07;63.14;100117.22;689772;28;23506;-70
2021/12/09 01:41:48;;;;;;;807.60;761.15;;;;;;;1.07;63.30;100119.03;688411;28;46170;-70
2021/12/09 01:42:10;;;;;;;940.63;885.42;;;;;;;1.05;63.21;100113.84;688050;28;69259;-69